Carbondale, Texas
Current Conditions -  °F | °C
As of 10:53 PM on Tuesday 25 Nov 2014 (Local Time) from KTXK Reporting Station
Clear Clear  
Wind Chill: 42°   Ceiling: Unl
Heat Index: 42°   Visibility: 10mi
Dew Point: 31°   Wind: 3mph
Humidity: 65%   Direction: 140°SE
Pressure: 30.15"   Gusts: NA
Location:  33.3608°N, 94.4651°W
Report Text: KTXK 260453Z AUTO 14003KT 10SM CLR 06/M01 A3015 RMK AO2 SLP209 T00561006
Loading
Personal Weather Stations






























Interactive Weather Map New forecast layout! Learn more

10-Day Weather Forecast

Advertisements
Track Severe Weather on mobile